Time;durP1;ratioP1;P1;durP2;ratioP2;P2;SDS_P1;SDS_P2;PMS_P1;PMS_P2;Temp;Humidity;BMP_temperature;BMP_pressure;BME280_temperature;BME280_humidity;BME280_pressure;Samples;Min_cycle;Max_cycle;Signal;HPM_P1;HPM_P2
2023/06/28 00:02:03;;;;;;;14.35;8.35;;;;;;;21.03;43.79;92396.56;5052809;28;20120;-77
2023/06/28 00:04:28;;;;;;;18.02;9.15;;;;;;;20.93;44.75;92390.69;5051544;28;20428;-77
2023/06/28 00:06:54;;;;;;;17.13;9.35;;;;;;;20.87;45.19;92391.31;5052770;28;20044;-77
2023/06/28 00:09:19;;;;;;;14.80;8.80;;;;;;;20.89;44.82;92395.16;5051947;28;20406;-76
2023/06/28 00:11:47;;;;;;;17.17;9.07;;;;;;;20.84;44.91;92392.03;5052431;28;20038;-77
2023/06/28 00:14:12;;;;;;;15.90;8.73;;;;;;;20.78;45.07;92389.66;5052703;28;20031;-76
2023/06/28 00:16:38;;;;;;;17.25;9.07;;;;;;;20.75;45.26;92403.66;5034887;28;20040;-77
2023/06/28 00:19:03;;;;;;;16.75;8.55;;;;;;;20.75;45.40;92395.69;5052599;28;20487;-76
2023/06/28 00:21:29;;;;;;;18.17;8.90;;;;;;;20.70;45.64;92403.94;5052370;28;20056;-77
2023/06/28 00:23:54;;;;;;;14.02;8.02;;;;;;;20.74;45.42;92407.44;5034661;28;20044;-77
2023/06/28 00:26:21;;;;;;;16.40;8.77;;;;;;;20.75;45.09;92401.00;5052460;28;20040;-77
2023/06/28 00:28:47;;;;;;;15.73;8.40;;;;;;;20.88;44.32;92398.97;5052363;28;20033;-77
2023/06/28 00:31:13;;;;;;;17.75;8.75;;;;;;;20.83;44.33;92401.13;5051180;28;20047;-76
2023/06/28 00:33:39;;;;;;;16.75;8.73;;;;;;;20.83;44.47;92396.59;5052091;28;20020;-76
2023/06/28 00:36:05;;;;;;;17.25;8.07;;;;;;;20.85;44.91;92398.88;5052184;28;20041;-77
2023/06/28 00:38:32;;;;;;;16.63;8.38;;;;;;;20.96;43.91;92397.97;5052229;28;20406;-77
2023/06/28 00:40:58;;;;;;;15.82;8.57;;;;;;;20.85;44.65;92397.03;5050941;28;20087;-76
2023/06/28 00:43:25;;;;;;;15.98;8.23;;;;;;;20.81;45.50;92392.75;5051771;28;20044;-77
2023/06/28 00:45:50;;;;;;;19.02;8.77;;;;;;;20.72;45.82;92395.63;5034363;28;20518;-77
2023/06/28 00:48:16;;;;;;;15.70;8.20;;;;;;;20.59;46.34;92406.41;5050714;28;20387;-77
2023/06/28 00:50:42;;;;;;;16.10;8.13;;;;;;;20.52;47.13;92408.88;5052154;28;20506;-77
2023/06/28 00:53:08;;;;;;;15.45;7.93;;;;;;;20.46;46.75;92402.31;5051624;28;20037;-77
2023/06/28 00:55:33;;;;;;;14.18;8.27;;;;;;;20.39;47.11;92410.13;5050663;28;20071;-77
2023/06/28 00:58:00;;;;;;;18.35;8.60;;;;;;;20.35;47.47;92409.28;5052064;28;20033;-77
2023/06/28 01:00:26;;;;;;;20.35;8.40;;;;;;;20.46;45.77;92404.19;5051928;28;20036;-77
2023/06/28 01:02:52;;;;;;;15.38;8.30;;;;;;;20.33;47.28;92398.22;5051622;28;20430;-77
2023/06/28 01:05:20;;;;;;;15.45;7.90;;;;;;;20.31;46.49;92397.81;5051871;28;20031;-76
2023/06/28 01:07:50;;;;;;;15.27;7.70;;;;;;;20.36;46.73;92400.22;5049890;28;20108;-77
2023/06/28 01:10:17;;;;;;;13.93;7.90;;;;;;;20.26;47.59;92400.75;5050063;28;20128;-77
2023/06/28 01:12:44;;;;;;;14.80;7.55;;;;;;;20.17;47.41;92408.91;5051405;28;20036;-77
2023/06/28 01:15:10;;;;;;;14.48;8.02;;;;;;;20.15;47.24;92411.94;5051271;28;20102;-77
2023/06/28 01:17:35;;;;;;;16.15;7.78;;;;;;;20.15;47.15;92401.31;5033409;28;20041;-77
2023/06/28 01:20:03;;;;;;;15.38;8.20;;;;;;;20.12;47.37;92407.28;5051382;28;20049;-77
2023/06/28 01:22:31;;;;;;;13.77;7.20;;;;;;;20.10;47.49;92406.88;5051258;28;20021;-77
2023/06/28 01:24:57;;;;;;;13.20;7.25;;;;;;;20.07;47.64;92415.53;5051395;28;20461;-77
2023/06/28 01:27:24;;;;;;;15.18;7.70;;;;;;;20.05;47.85;92417.78;5050014;28;20064;-76
2023/06/28 01:29:56;;;;;;;13.57;7.38;;;;;;;20.01;48.22;92406.28;5033633;28;20021;-77
2023/06/28 01:32:23;;;;;;;14.48;7.68;;;;;;;20.00;47.92;92414.63;5049934;28;20519;-76
2023/06/28 01:34:49;;;;;;;12.07;6.88;;;;;;;19.98;47.94;92407.00;5049803;28;20538;-77
2023/06/28 01:37:14;;;;;;;13.52;7.15;;;;;;;19.94;48.17;92424.75;5051523;28;20032;-77
2023/06/28 01:39:42;;;;;;;12.85;7.63;;;;;;;19.92;48.94;92424.31;5050846;28;20044;-77
2023/06/28 01:42:08;;;;;;;12.95;7.40;;;;;;;19.89;48.63;92425.00;5050749;28;20049;-77
2023/06/28 01:44:35;;;;;;;12.88;7.43;;;;;;;19.88;48.19;92428.78;5051031;28;20494;-77
2023/06/28 01:47:03;;;;;;;14.27;7.65;;;;;;;19.87;48.24;92430.66;5033673;28;20044;-77
2023/06/28 01:49:30;;;;;;;13.02;6.78;;;;;;;19.85;48.38;92426.81;5049760;28;20032;-77
2023/06/28 01:51:56;;;;;;;12.85;7.20;;;;;;;19.79;49.12;92422.88;5032959;28;20041;-77
2023/06/28 01:54:21;;;;;;;14.52;6.78;;;;;;;19.82;48.79;92435.47;5049745;28;20410;-77
2023/06/28 01:56:47;;;;;;;12.93;6.88;;;;;;;19.82;48.39;92438.13;5049516;28;20037;-77
2023/06/28 01:59:13;;;;;;;13.25;6.60;;;;;;;19.79;48.61;92431.59;5049435;28;20127;-77
2023/06/28 02:01:38;;;;;;;14.52;7.25;;;;;;;19.82;48.16;92438.13;5049572;28;20086;-77
2023/06/28 02:04:04;;;;;;;12.70;7.32;;;;;;;19.80;49.63;92433.16;5050382;28;20491;-77
2023/06/28 02:06:30;;;;;;;13.43;6.80;;;;;;;19.73;50.71;92430.34;5036991;28;20510;-77
2023/06/28 02:08:55;;;;;;;12.63;7.05;;;;;;;19.60;51.64;92428.88;5053021;28;20044;-77
2023/06/28 02:11:21;;;;;;;13.60;7.20;;;;;;;19.49;51.57;92424.06;5036791;28;20033;-77
2023/06/28 02:13:47;;;;;;;12.50;6.97;;;;;;;19.37;52.76;92424.16;5054573;28;20540;-77
2023/06/28 02:16:13;;;;;;;11.60;6.63;;;;;;;19.26;52.78;92423.88;5036924;28;20154;-77
2023/06/28 02:18:39;;;;;;;11.63;6.85;;;;;;;19.21;53.23;92431.34;5053265;28;20052;-77
2023/06/28 02:21:05;;;;;;;11.80;6.97;;;;;;;19.14;53.51;92430.03;5053297;28;20071;-77
2023/06/28 02:23:30;;;;;;;15.82;7.65;;;;;;;19.04;55.68;92429.75;5053180;28;20123;-77
2023/06/28 02:25:56;;;;;;;12.27;7.28;;;;;;;18.97;56.03;92427.69;5054366;28;20036;-77
2023/06/28 02:28:22;;;;;;;15.25;7.25;;;;;;;18.88;56.63;92435.03;5053283;28;20574;-77
2023/06/28 02:30:47;;;;;;;12.25;6.78;;;;;;;18.82;58.05;92428.41;5054441;28;20105;-77
2023/06/28 02:33:13;;;;;;;15.27;6.82;;;;;;;18.74;59.06;92427.44;5054580;28;20266;-77
2023/06/28 02:35:38;;;;;;;13.50;7.43;;;;;;;18.65;59.96;92424.16;5054220;28;20490;-77
2023/06/28 02:38:04;;;;;;;17.35;7.13;;;;;;;18.59;60.23;92431.56;5052936;28;20111;-77
2023/06/28 02:40:29;;;;;;;18.83;7.70;;;;;;;18.54;61.51;92434.47;5052926;28;20040;-77
2023/06/28 02:42:55;;;;;;;16.52;7.65;;;;;;;18.46;62.06;92425.56;5052672;28;20043;-77
2023/06/28 02:45:20;;;;;;;13.98;7.10;;;;;;;18.41;62.02;92425.75;5053904;28;20076;-76
2023/06/28 02:47:47;;;;;;;13.43;7.30;;;;;;;18.36;61.81;92427.88;5036221;28;20041;-77
2023/06/28 02:50:13;;;;;;;14.32;6.78;;;;;;;18.34;61.75;92433.53;5052642;28;20047;-76
2023/06/28 02:53:05;;;;;;;14.15;7.50;;;;;;;18.30;62.18;92430.00;5053345;28;20102;-76
2023/06/28 02:55:30;;;;;;;13.48;7.15;;;;;;;18.24;62.26;92426.06;5053831;28;20445;-76
2023/06/28 02:58:00;;;;;;;14.48;7.40;;;;;;;18.21;61.49;92426.69;5052590;28;20398;-76
2023/06/28 03:00:26;;;;;;;14.90;7.15;;;;;;;18.19;61.59;92424.38;5052369;28;20076;-76
2023/06/28 03:02:51;;;;;;;12.90;7.10;;;;;;;18.18;61.42;92433.44;5052365;28;20045;-76
2023/06/28 03:05:19;;;;;;;17.90;7.20;;;;;;;18.18;61.47;92422.09;5035931;28;20077;-76
2023/06/28 03:07:44;;;;;;;13.23;7.35;;;;;;;18.16;60.96;92419.75;5051814;28;20136;-76
2023/06/28 03:10:10;;;;;;;15.63;6.82;;;;;;;18.12;61.42;92423.41;5052256;28;20033;-77
2023/06/28 03:12:35;;;;;;;12.90;6.93;;;;;;;18.07;61.65;92425.19;5052133;28;20131;-76
2023/06/28 03:15:01;;;;;;;16.17;7.60;;;;;;;18.04;61.73;92419.78;5052975;28;20115;-76
2023/06/28 03:17:27;;;;;;;13.68;7.10;;;;;;;18.02;61.66;92420.13;5052093;28;20024;-77
2023/06/28 03:19:52;;;;;;;14.00;7.15;;;;;;;18.01;63.32;92426.53;5035611;28;20048;-76
2023/06/28 03:22:18;;;;;;;12.38;6.57;;;;;;;17.91;63.26;92421.66;5035334;28;20044;-77
2023/06/28 03:24:43;;;;;;;16.92;7.55;;;;;;;17.93;66.66;92424.00;5052010;28;20166;-76
2023/06/28 03:27:09;;;;;;;22.95;7.65;;;;;;;18.06;68.52;92420.22;5053761;28;20045;-78
2023/06/28 03:29:36;;;;;;;16.38;7.78;;;;;;;18.00;68.77;92422.31;5052588;28;20044;-76
2023/06/28 03:32:02;;;;;;;15.55;7.88;;;;;;;17.98;69.76;92413.94;5054476;28;20399;-76
2023/06/28 03:34:27;;;;;;;18.60;7.70;;;;;;;17.95;69.98;92424.44;5052001;28;20041;-76
2023/06/28 03:36:53;;;;;;;16.95;7.82;;;;;;;17.89;76.22;92414.06;5051936;28;20106;-76
2023/06/28 03:39:19;;;;;;;13.40;7.50;;;;;;;17.90;78.00;92417.50;5051608;28;20103;-77
2023/06/28 03:41:45;;;;;;;16.70;8.02;;;;;;;17.89;77.65;92422.00;5052787;28;20167;-76
2023/06/28 03:44:11;;;;;;;14.57;7.55;;;;;;;17.87;80.76;92423.44;5051510;28;20068;-76
2023/06/28 03:46:37;;;;;;;15.32;8.57;;;;;;;17.96;85.80;92420.69;5051562;28;20052;-76
2023/06/28 03:49:04;;;;;;;15.10;7.97;;;;;;;17.95;86.09;92411.97;5052819;28;20052;-76
2023/06/28 03:51:30;;;;;;;14.13;8.45;;;;;;;17.95;88.13;92413.84;5051474;28;20124;-76
2023/06/28 03:53:55;;;;;;;16.70;8.70;;;;;;;18.02;91.12;92414.81;5051290;28;20526;-76
2023/06/28 03:56:21;;;;;;;14.07;8.52;;;;;;;17.98;92.01;92411.28;5051331;28;20037;-76
2023/06/28 03:58:49;;;;;;;17.65;9.65;;;;;;;17.97;93.86;92409.75;5052573;28;20112;-75
2023/06/28 04:01:15;;;;;;;17.85;9.27;;;;;;;17.94;94.10;92412.28;5052398;28;20045;-76
2023/06/28 04:03:40;;;;;;;18.77;9.55;;;;;;;17.91;94.28;92420.91;5052427;28;20079;-76
2023/06/28 04:06:06;;;;;;;16.38;9.25;;;;;;;17.90;94.37;92425.44;5051090;28;20321;-76
2023/06/28 04:08:31;;;;;;;14.85;8.75;;;;;;;17.92;94.07;92420.56;5050947;28;20045;-76
2023/06/28 04:10:57;;;;;;;17.50;9.95;;;;;;;17.94;95.17;92418.34;5051151;28;20460;-76
2023/06/28 04:13:25;;;;;;;16.52;9.70;;;;;;;17.94;95.10;92414.94;5051290;28;20557;-76
2023/06/28 04:15:52;;;;;;;17.95;9.45;;;;;;;17.96;96.93;92413.50;5050802;28;20072;-77
2023/06/28 04:18:17;;;;;;;15.30;9.05;;;;;;;17.96;96.84;92413.50;5052301;28;20033;-76
2023/06/28 04:20:43;;;;;;;16.83;9.02;;;;;;;17.98;97.48;92415.81;5050953;28;20384;-76
2023/06/28 04:23:09;;;;;;;19.50;8.98;;;;;;;17.99;98.41;92420.00;5050921;28;20258;-76
2023/06/28 04:25:34;;;;;;;16.80;8.63;;;;;;;17.96;98.34;92410.84;5050810;28;20032;-76
2023/06/28 04:28:00;;;;;;;19.33;9.60;;;;;;;17.98;98.35;92416.59;5050233;28;20037;-76
2023/06/28 04:30:25;;;;;;;15.35;8.63;;;;;;;18.03;98.44;92413.69;5052140;28;20568;-76
2023/06/28 04:32:51;;;;;;;19.13;8.93;;;;;;;18.04;98.98;92417.91;5051995;28;20036;-76
2023/06/28 04:35:17;;;;;;;15.60;9.25;;;;;;;18.04;98.49;92412.59;5050723;28;20128;-77
2023/06/28 04:37:43;;;;;;;15.32;9.48;;;;;;;18.12;100.00;92415.47;5051768;28;20033;-76
2023/06/28 04:40:10;;;;;;;18.42;9.40;;;;;;;18.11;100.00;92425.28;5051651;28;20115;-76
2023/06/28 04:42:35;;;;;;;15.35;8.88;;;;;;;18.14;100.00;92423.84;5051589;28;20072;-76
2023/06/28 04:45:01;;;;;;;17.45;10.05;;;;;;;18.17;100.00;92421.31;5050563;28;20116;-76
2023/06/28 04:47:28;;;;;;;15.88;9.88;;;;;;;18.13;100.00;92425.72;5050477;28;20056;-76
2023/06/28 04:49:54;;;;;;;16.50;10.00;;;;;;;18.13;100.00;92430.25;5050444;28;20045;-76
2023/06/28 04:52:21;;;;;;;18.42;9.68;;;;;;;18.17;100.00;92441.72;5051655;28;20060;-76
2023/06/28 04:54:47;;;;;;;17.42;8.93;;;;;;;18.18;100.00;92444.03;5051715;28;20651;-76
2023/06/28 04:57:15;;;;;;;15.95;9.27;;;;;;;18.20;100.00;92433.88;5051605;28;20043;-76
2023/06/28 04:59:41;;;;;;;12.15;7.78;;;;;;;18.21;99.01;92437.28;5050152;28;20116;-76
2023/06/28 05:02:06;;;;;;;17.00;9.32;;;;;;;18.20;100.00;92433.88;5051208;28;20109;-76
2023/06/28 05:04:33;;;;;;;15.40;8.23;;;;;;;18.26;100.00;92439.72;5050074;28;20055;-77
2023/06/28 05:07:04;;;;;;;17.48;9.50;;;;;;;18.27;100.00;92430.66;5050142;28;20039;-76
2023/06/28 05:09:34;;;;;;;18.27;9.60;;;;;;;18.34;100.00;92436.16;5049655;28;20465;-77
2023/06/28 05:12:01;;;;;;;16.05;9.63;;;;;;;18.31;100.00;92431.53;5050066;28;20411;-76
2023/06/28 05:14:31;;;;;;;20.88;9.02;;;;;;;18.39;99.95;92438.56;5050094;28;20032;-76
2023/06/28 05:16:57;;;;;;;14.18;9.00;;;;;;;18.45;98.80;92447.84;5049991;28;20033;-77
2023/06/28 05:19:23;;;;;;;15.48;9.35;;;;;;;18.56;100.00;92456.09;5051696;28;20041;-76
2023/06/28 05:21:49;;;;;;;15.93;8.90;;;;;;;18.59;99.58;92449.34;5051162;28;20064;-77
2023/06/28 05:24:16;;;;;;;17.80;8.60;;;;;;;18.63;99.39;92450.22;5050951;28;20465;-76
2023/06/28 05:26:42;;;;;;;18.30;8.77;;;;;;;18.71;98.05;92450.09;5050963;28;20053;-76
2023/06/28 05:29:08;;;;;;;16.65;9.15;;;;;;;18.87;97.61;92444.88;5051003;28;20033;-76
2023/06/28 05:31:36;;;;;;;20.65;8.93;;;;;;;18.92;97.63;92449.16;5033148;28;20029;-76
2023/06/28 05:34:02;;;;;;;15.23;9.80;;;;;;;18.92;98.55;92452.56;5051020;28;20538;-76
2023/06/28 05:36:27;;;;;;;14.82;9.18;;;;;;;18.95;99.44;92453.78;5050972;28;20526;-76
2023/06/28 05:38:53;;;;;;;15.18;8.95;;;;;;;19.08;98.23;92451.84;5051014;28;20332;-76
2023/06/28 05:41:19;;;;;;;18.30;10.20;;;;;;;18.99;99.26;92437.97;5050944;28;20414;-76
2023/06/28 05:43:45;;;;;;;18.23;9.77;;;;;;;19.00;99.93;92452.75;5067708;28;20051;-76
2023/06/28 05:46:11;;;;;;;16.48;9.57;;;;;;;19.02;100.00;92456.59;5069599;28;20111;-77
2023/06/28 05:48:37;;;;;;;15.50;9.38;;;;;;;19.13;100.00;92460.31;5071355;28;20691;-77
2023/06/28 05:51:03;;;;;;;14.55;9.45;;;;;;;19.26;99.40;92454.97;5070884;28;20052;-76
2023/06/28 05:53:29;;;;;;;15.10;10.10;;;;;;;19.38;98.46;92456.75;5069707;28;20439;-76
2023/06/28 05:55:55;;;;;;;15.13;8.90;;;;;;;19.40;99.31;92457.97;5070682;28;20135;-76
2023/06/28 05:58:21;;;;;;;15.63;9.25;;;;;;;19.49;98.32;92455.91;5070883;28;20125;-77
2023/06/28 06:00:47;;;;;;;16.80;9.32;;;;;;;19.75;96.44;92458.09;5070942;28;20056;-76
2023/06/28 06:03:13;;;;;;;16.38;10.00;;;;;;;19.93;95.29;92452.44;5071014;28;20028;-77
2023/06/28 06:05:38;;;;;;;17.77;9.63;;;;;;;20.05;94.98;92456.88;5069392;28;20036;-77
2023/06/28 06:08:05;;;;;;;15.30;9.65;;;;;;;20.36;92.47;92456.03;5070486;28;20032;-76
2023/06/28 06:10:30;;;;;;;16.23;9.45;;;;;;;20.50;92.45;92458.97;5070781;28;20494;-77
2023/06/28 06:12:56;;;;;;;16.08;9.30;;;;;;;20.71;92.27;92464.00;5070875;28;20070;-77
2023/06/28 06:15:22;;;;;;;12.60;8.65;;;;;;;20.89;91.63;92472.31;5069542;28;20053;-77
2023/06/28 06:17:48;;;;;;;14.65;8.98;;;;;;;21.06;88.63;92467.72;5069358;28;20125;-76
2023/06/28 06:20:16;;;;;;;14.73;9.05;;;;;;;21.12;89.04;92471.63;5070965;28;20025;-77
2023/06/28 06:22:43;;;;;;;18.70;9.52;;;;;;;21.33;86.69;92477.34;5069675;28;20123;-77
2023/06/28 06:25:09;;;;;;;13.88;9.27;;;;;;;21.47;86.44;92482.19;5070614;28;20427;-77
2023/06/28 06:27:35;;;;;;;15.40;9.68;;;;;;;21.86;84.96;92481.28;5070891;28;20024;-77
2023/06/28 06:30:01;;;;;;;14.00;9.27;;;;;;;22.03;84.62;92478.91;5070924;28;20063;-77
2023/06/28 06:32:27;;;;;;;16.48;9.68;;;;;;;22.05;83.66;92473.22;5071097;28;20116;-77
2023/06/28 06:34:53;;;;;;;14.73;9.50;;;;;;;22.33;81.56;92477.47;5069500;28;20124;-77
2023/06/28 06:37:20;;;;;;;18.20;8.63;;;;;;;22.51;81.48;92491.81;5070562;28;20072;-77
2023/06/28 06:39:46;;;;;;;14.88;9.30;;;;;;;22.53;81.13;92481.56;5070941;28;20106;-77
2023/06/28 06:42:11;;;;;;;14.82;8.95;;;;;;;22.48;81.29;92487.22;5052822;28;20510;-77
2023/06/28 06:44:37;;;;;;;13.10;9.23;;;;;;;22.43;80.18;92482.19;5069779;28;20098;-77
2023/06/28 06:47:06;;;;;;;15.35;10.05;;;;;;;22.50;81.45;92482.28;5069894;28;20520;-77
2023/06/28 06:49:32;;;;;;;16.10;9.25;;;;;;;22.12;81.54;92481.31;5069745;28;20048;-77
2023/06/28 06:51:58;;;;;;;16.00;10.07;;;;;;;22.16;82.56;92481.41;5074531;28;20085;-77
2023/06/28 06:54:30;;;;;;;16.17;9.70;;;;;;;22.15;83.54;92477.19;5073199;28;20028;-77
2023/06/28 06:56:58;;;;;;;13.70;8.70;;;;;;;22.22;83.40;92478.09;5073395;28;20702;-77
2023/06/28 06:59:23;;;;;;;15.40;9.70;;;;;;;22.34;79.50;92479.03;5072796;28;20031;-77
2023/06/28 07:01:50;;;;;;;13.32;8.57;;;;;;;22.45;79.98;92474.59;5074192;28;20044;-77
2023/06/28 07:04:17;;;;;;;15.50;9.27;;;;;;;22.49;79.43;92478.06;5074949;28;20032;-77
2023/06/28 07:06:44;;;;;;;14.13;9.00;;;;;;;22.52;80.06;92469.38;5074410;28;20029;-77
2023/06/28 07:09:10;;;;;;;17.00;10.25;;;;;;;22.45;82.48;92470.03;5074109;28;20036;-76
2023/06/28 07:11:36;;;;;;;14.98;8.82;;;;;;;22.54;80.05;92461.78;5074203;28;20119;-77
2023/06/28 07:14:02;;;;;;;15.70;8.85;;;;;;;22.54;81.89;92466.31;5074713;28;20474;-77
2023/06/28 07:16:27;;;;;;;13.32;8.93;;;;;;;22.58;82.38;92467.91;5072996;28;20044;-77
2023/06/28 07:18:54;;;;;;;12.90;8.90;;;;;;;22.44;79.75;92473.06;5074230;28;20089;-77
2023/06/28 07:21:20;;;;;;;14.70;8.93;;;;;;;22.51;81.70;92473.13;5056193;28;20047;-77
2023/06/28 07:23:46;;;;;;;15.85;9.05;;;;;;;22.54;79.32;92476.97;5073951;28;20111;-77
2023/06/28 07:26:14;;;;;;;14.43;9.40;;;;;;;22.66;79.80;92480.22;5073896;28;20032;-77
2023/06/28 07:28:40;;;;;;;16.00;9.25;;;;;;;22.36;82.94;92477.53;5074137;28;20051;-77
2023/06/28 07:31:06;;;;;;;17.60;10.30;;;;;;;22.05;84.76;92481.22;5072750;28;20493;-77
2023/06/28 07:33:31;;;;;;;20.13;9.90;;;;;;;21.94;86.10;92482.97;5073935;28;20166;-77
2023/06/28 07:35:57;;;;;;;16.83;10.95;;;;;;;21.94;86.37;92488.28;5073551;28;20075;-77
2023/06/28 07:38:23;;;;;;;18.25;9.48;;;;;;;22.26;82.22;92490.69;5073743;28;20536;-77
2023/06/28 07:40:49;;;;;;;13.95;8.90;;;;;;;22.37;80.08;92494.28;5073756;28;20039;-77
2023/06/28 07:43:16;;;;;;;14.27;8.65;;;;;;;22.46;83.02;92492.13;5073390;28;20074;-77
2023/06/28 07:45:42;;;;;;;15.50;8.25;;;;;;;22.64;78.50;92495.81;5072021;28;20101;-77
2023/06/28 07:48:08;;;;;;;14.77;9.13;;;;;;;22.61;81.52;92496.53;5073670;28;20495;-77
2023/06/28 07:50:33;;;;;;;15.52;8.98;;;;;;;22.51;80.00;92499.06;5072453;28;20494;-77
2023/06/28 07:52:59;;;;;;;16.50;8.95;;;;;;;22.37;82.34;92499.63;5073289;28;20470;-77
2023/06/28 07:55:24;;;;;;;12.55;8.70;;;;;;;22.40;80.34;92499.69;5073127;28;20108;-77
2023/06/28 07:57:50;;;;;;;13.73;9.02;;;;;;;22.22;80.86;92504.75;5073087;28;20044;-77
2023/06/28 08:00:16;;;;;;;12.65;8.55;;;;;;;22.36;81.65;92508.72;5072167;28;20115;-77
2023/06/28 08:02:42;;;;;;;19.58;9.02;;;;;;;22.58;77.92;92507.91;5074289;28;20049;-76
2023/06/28 08:05:08;;;;;;;15.00;8.13;;;;;;;22.37;81.34;92510.28;5072363;28;20042;-77
2023/06/28 08:07:34;;;;;;;14.70;8.75;;;;;;;22.48;81.21;92507.78;5075087;28;20037;-77
2023/06/28 08:10:00;;;;;;;14.43;8.77;;;;;;;22.31;79.62;92509.81;5074359;28;20043;-77
2023/06/28 08:12:26;;;;;;;16.13;8.88;;;;;;;22.46;80.21;92508.13;5074413;28;20107;-77
2023/06/28 08:14:51;;;;;;;13.95;9.13;;;;;;;22.48;83.42;92511.22;5073144;28;20115;-77
2023/06/28 08:17:17;;;;;;;14.23;8.90;;;;;;;22.44;82.46;92508.47;5072140;28;20098;-77
2023/06/28 08:19:42;;;;;;;14.75;9.38;;;;;;;22.26;83.33;92506.69;5072963;28;20532;-77
2023/06/28 08:22:08;;;;;;;15.23;9.05;;;;;;;22.11;84.52;92508.34;5071695;28;20040;-77
2023/06/28 08:24:34;;;;;;;16.58;9.40;;;;;;;22.23;83.24;92506.28;5073859;28;20494;-76
2023/06/28 08:27:00;;;;;;;16.90;9.07;;;;;;;22.15;86.03;92501.16;5073066;28;20037;-77
2023/06/28 08:29:26;;;;;;;14.65;9.48;;;;;;;22.41;84.52;92500.44;5072414;28;20539;-77
2023/06/28 08:31:52;;;;;;;14.35;9.43;;;;;;;22.52;82.61;92506.69;5072274;28;20043;-77
2023/06/28 08:34:18;;;;;;;22.35;9.77;;;;;;;22.74;85.70;92501.63;5072940;28;20398;-77
2023/06/28 08:36:44;;;;;;;12.90;8.52;;;;;;;23.07;79.51;92507.03;5072834;28;20047;-78
2023/06/28 08:39:09;;;;;;;13.55;7.88;;;;;;;23.18;75.86;92503.75;5073266;28;20040;-77
2023/06/28 08:41:35;;;;;;;14.90;8.35;;;;;;;23.11;77.66;92509.78;5072154;28;20059;-76
2023/06/28 08:44:04;;;;;;;12.63;8.18;;;;;;;23.34;77.80;92506.97;5053702;28;20371;-75
2023/06/28 08:46:30;;;;;;;13.10;8.38;;;;;;;23.48;79.18;92507.13;5064614;28;20504;-76
2023/06/28 08:48:57;;;;;;;14.02;8.48;;;;;;;23.44;78.58;92516.22;5053626;28;20041;-74
2023/06/28 08:51:23;;;;;;;14.00;8.43;;;;;;;23.44;74.75;92517.00;5051676;28;20433;-74
2023/06/28 08:53:49;;;;;;;13.07;8.05;;;;;;;23.38;79.24;92502.44;5069872;28;20069;-75
2023/06/28 08:56:15;;;;;;;15.30;8.85;;;;;;;23.01;80.29;92505.84;5050179;28;20108;-75
2023/06/28 08:58:41;;;;;;;13.50;9.13;;;;;;;22.63;82.58;92506.84;5049366;28;20037;-75
2023/06/28 09:01:08;;;;;;;13.98;8.63;;;;;;;22.43;83.87;92509.63;5056960;28;20047;-77
2023/06/28 09:03:40;;;;;;;18.10;8.63;;;;;;;22.25;82.82;92497.94;5059401;28;20091;-75
2023/06/28 09:06:05;;;;;;;15.90;9.60;;;;;;;22.30;83.53;92504.84;5069358;28;20068;-75
2023/06/28 09:08:32;;;;;;;17.90;9.90;;;;;;;22.16;85.42;92508.81;5067297;28;20098;-75
2023/06/28 09:11:01;;;;;;;14.38;8.40;;;;;;;22.29;85.39;92509.44;5070894;28;20048;-76
2023/06/28 09:13:29;;;;;;;14.57;9.13;;;;;;;22.13;83.85;92512.19;5070328;28;20025;-75
2023/06/28 09:15:55;;;;;;;14.63;8.93;;;;;;;22.33;84.53;92510.22;5069462;28;20024;-76
2023/06/28 09:18:22;;;;;;;17.38;8.55;;;;;;;22.66;83.12;92508.78;5070924;28;20050;-76
2023/06/28 09:20:49;;;;;;;13.88;8.77;;;;;;;22.65;83.18;92500.03;5064019;28;20503;-75
2023/06/28 09:23:25;;;;;;;14.85;8.40;;;;;;;22.71;82.58;92508.47;5049909;28;20605;-75
2023/06/28 09:25:51;;;;;;;13.63;8.52;;;;;;;22.64;80.49;92511.03;5054949;28;20449;-75
2023/06/28 09:28:19;;;;;;;16.42;8.40;;;;;;;22.44;82.12;92505.06;5070776;28;20056;-75
2023/06/28 09:30:54;;;;;;;15.32;8.10;;;;;;;22.38;83.25;92506.47;5070917;28;20409;-75
2023/06/28 09:33:21;;;;;;;14.80;8.40;;;;;;;22.54;81.96;92503.66;5070600;28;20084;-76
2023/06/28 09:35:47;;;;;;;15.35;7.97;;;;;;;22.57;83.61;92498.38;5050779;28;20037;-76
2023/06/28 09:38:13;;;;;;;12.85;8.13;;;;;;;22.78;83.03;92502.47;5050936;28;20257;-75
2023/06/28 09:40:39;;;;;;;17.38;9.25;;;;;;;22.51;82.33;92505.16;5049575;28;20150;-75
2023/06/28 09:43:04;;;;;;;14.55;8.63;;;;;;;22.31;81.24;92509.81;5051170;28;20227;-76
2023/06/28 09:45:36;;;;;;;11.25;8.20;;;;;;;22.07;81.79;92513.63;5050832;28;20033;-75
2023/06/28 09:48:03;;;;;;;;;;;;;;;22.00;80.45;92516.19;5049883;28;20033;-75
2023/06/28 09:50:38;;;;;;;14.20;8.48;;;;;;;21.89;79.67;92504.56;5050313;28;19920;-74
2023/06/28 09:53:13;;;;;;;12.82;8.68;;;;;;;22.04;83.19;92506.31;5049295;28;20033;-75
2023/06/28 09:55:43;;;;;;;14.13;8.27;;;;;;;21.99;84.74;92501.31;5049286;28;20041;-75
2023/06/28 09:58:16;;;;;;;12.80;8.43;;;;;;;22.24;84.63;92499.81;5050975;28;20041;-75
2023/06/28 10:00:43;;;;;;;12.65;8.10;;;;;;;22.43;83.00;92512.28;5049362;28;20033;-75
2023/06/28 10:03:10;;;;;;;14.48;8.43;;;;;;;22.42;81.12;92510.72;5064394;28;20028;-75
2023/06/28 10:05:39;;;;;;;14.60;8.60;;;;;;;22.80;81.83;92516.22;5050028;28;20044;-75
2023/06/28 10:08:09;;;;;;;12.43;8.10;;;;;;;23.26;82.04;92511.47;5069844;28;20036;-76
2023/06/28 10:10:37;;;;;;;12.55;8.60;;;;;;;23.60;73.81;92516.03;5069332;28;20121;-75
2023/06/28 10:13:03;;;;;;;12.82;7.72;;;;;;;23.78;73.46;92527.69;5055140;28;20025;-76
2023/06/28 10:15:36;;;;;;;13.32;7.57;;;;;;;23.76;71.16;92527.28;5050457;28;20491;-75
2023/06/28 10:18:03;;;;;;;14.20;8.77;;;;;;;23.65;67.39;92526.38;5053757;28;20057;-76
2023/06/28 10:20:29;;;;;;;16.48;8.27;;;;;;;23.22;72.57;92532.03;5063476;28;20078;-76
2023/06/28 10:22:55;;;;;;;13.02;8.23;;;;;;;23.19;72.04;92521.28;5070253;28;20033;-75
2023/06/28 10:25:23;;;;;;;12.65;8.70;;;;;;;23.35;71.98;92527.22;5065736;28;20036;-76
2023/06/28 10:27:49;;;;;;;14.90;8.15;;;;;;;22.96;71.74;92527.47;5063647;28;20049;-75
2023/06/28 10:30:15;;;;;;;15.05;8.15;;;;;;;22.96;70.43;92535.47;5054284;28;20111;-75
2023/06/28 10:32:43;;;;;;;11.07;7.63;;;;;;;;;;5052924;28;20025;-75
2023/06/28 10:35:09;;;;;;;12.02;7.47;;;;;;;22.91;74.64;92527.78;5054240;28;20040;-75
2023/06/28 10:37:35;;;;;;;13.98;8.43;;;;;;;22.72;73.13;92535.91;5054370;28;20029;-76
2023/06/28 10:40:04;;;;;;;12.65;7.88;;;;;;;23.04;72.15;92537.16;5054452;28;20021;-75
2023/06/28 10:42:40;;;;;;;11.90;7.78;;;;;;;23.15;75.07;92541.84;5060415;28;20157;-76
2023/06/28 10:45:08;;;;;;;14.02;8.15;;;;;;;23.25;75.11;92536.63;5073877;28;20501;-75
2023/06/28 10:47:34;;;;;;;13.15;8.35;;;;;;;23.45;74.71;92539.13;5073762;28;20040;-75
2023/06/28 10:50:08;;;;;;;16.50;9.05;;;;;;;23.35;74.59;92535.22;5073889;28;20108;-75
2023/06/28 10:52:35;;;;;;;14.98;8.32;;;;;;;23.18;74.60;92536.53;5074131;28;20410;-78
2023/06/28 10:55:04;;;;;;;12.88;8.48;;;;;;;23.15;77.14;92536.53;5061573;28;20036;-75
2023/06/28 10:57:37;;;;;;;13.80;9.23;;;;;;;23.08;79.34;92545.22;5053621;28;20498;-75
2023/06/28 11:00:09;;;;;;;15.40;8.52;;;;;;;23.25;81.01;92535.88;5054496;28;20032;-75
2023/06/28 11:02:59;;;;;;;13.75;7.68;;;;;;;23.25;78.16;92541.97;5064582;28;20094;-76
2023/06/28 11:05:39;;;;;;;14.48;9.27;;;;;;;23.17;79.90;92539.56;5052372;28;20048;-75
2023/06/28 11:08:13;;;;;;;15.38;9.20;;;;;;;23.23;79.29;92543.47;5066254;28;20040;-75
2023/06/28 11:10:40;;;;;;;13.73;8.60;;;;;;;23.19;81.66;92548.78;5053391;28;20033;-75
2023/06/28 11:13:10;;;;;;;15.15;9.90;;;;;;;22.86;80.66;92549.47;5053498;28;20552;-75
2023/06/28 11:15:45;;;;;;;14.98;9.18;;;;;;;22.73;81.26;92551.56;5051983;28;20033;-75
2023/06/28 11:18:18;;;;;;;17.25;8.68;;;;;;;22.74;84.40;92547.00;5055407;28;20039;-75
2023/06/28 11:20:57;;;;;;;16.70;9.90;;;;;;;22.60;85.39;92551.00;5057360;28;20029;-75
2023/06/28 11:23:29;;;;;;;19.70;9.10;;;;;;;22.56;87.17;92550.19;5053207;28;20075;-75